createdAt,value
2018-12-16T00:00:33.226Z,60.00
2018-12-16T00:01:31.674Z,56.60
2018-12-16T00:02:33.196Z,58.80
2018-12-16T00:03:34.211Z,53.40
2018-12-16T00:04:34.226Z,58.00
2018-12-16T00:05:32.679Z,62.10
2018-12-16T00:06:33.195Z,57.70
2018-12-16T00:07:33.712Z,58.30
2018-12-16T00:08:33.225Z,60.60
2018-12-16T00:09:31.591Z,57.20
2018-12-16T00:10:37.235Z,59.50
2018-12-16T00:11:31.570Z,51.50
2018-12-16T00:12:32.700Z,57.80
2018-12-16T00:13:31.548Z,55.10
2018-12-16T00:14:32.220Z,51.90
2018-12-16T00:15:34.197Z,53.90
2018-12-16T00:16:32.689Z,59.90
2018-12-16T00:17:36.249Z,61.80
2018-12-16T00:18:32.499Z,56.10
2018-12-16T00:19:31.483Z,56.70
2018-12-16T00:20:33.234Z,57.80
2018-12-16T00:21:31.465Z,58.10
2018-12-16T00:22:31.453Z,56.70
2018-12-16T00:23:32.194Z,55.30
2018-12-16T00:24:32.190Z,60.60
2018-12-16T00:25:32.193Z,60.60
2018-12-16T00:26:35.224Z,56.30
2018-12-16T00:27:32.725Z,57.80
2018-12-16T00:28:31.411Z,60.50
2018-12-16T00:29:35.235Z,55.10
2018-12-16T00:30:32.770Z,60.60
2018-12-16T00:31:33.190Z,57.50
2018-12-16T00:32:32.192Z,55.00
2018-12-16T00:33:32.196Z,60.00
2018-12-16T00:34:32.244Z,52.50
2018-12-16T00:35:32.192Z,57.40
2018-12-16T00:36:33.245Z,58.30
2018-12-16T00:37:34.253Z,55.00
2018-12-16T00:38:32.242Z,57.70
2018-12-16T00:39:33.227Z,61.20
2018-12-16T00:40:33.192Z,59.50
2018-12-16T00:41:32.202Z,61.00
2018-12-16T00:42:31.234Z,61.00
2018-12-16T00:43:33.211Z,58.20
2018-12-16T00:44:31.211Z,59.30
2018-12-16T00:45:31.203Z,58.90
2018-12-16T00:46:33.193Z,60.80
2018-12-16T00:47:31.191Z,56.60
2018-12-16T00:48:32.767Z,58.60
2018-12-16T00:49:32.703Z,56.90
2018-12-16T00:50:31.155Z,61.10
2018-12-16T00:51:34.195Z,61.80
2018-12-16T00:52:36.414Z,57.00
2018-12-16T00:53:32.150Z,59.80
2018-12-16T00:54:31.115Z,60.30
2018-12-16T00:55:31.691Z,53.10
2018-12-16T00:56:31.091Z,52.10
2018-12-16T00:57:31.079Z,55.50
2018-12-16T00:58:31.079Z,57.30
2018-12-16T00:59:31.083Z,57.20
2018-12-16T01:00:31.090Z,55.50
2018-12-16T01:01:31.042Z,56.80
2018-12-16T01:02:31.046Z,55.50
2018-12-16T01:03:31.028Z,55.80
2018-12-16T01:04:31.015Z,56.00
2018-12-16T01:05:30.998Z,53.70
2018-12-16T01:06:30.994Z,55.20
2018-12-16T01:07:30.979Z,55.00
2018-12-16T01:08:31.665Z,50.70
2018-12-16T01:09:30.983Z,54.30
2018-12-16T01:10:30.951Z,52.60
2018-12-16T01:11:30.982Z,52.20
2018-12-16T01:12:30.914Z,54.40
2018-12-16T01:13:30.908Z,53.60
2018-12-16T01:14:30.898Z,54.50
2018-12-16T01:15:30.885Z,55.30
2018-12-16T01:16:30.876Z,51.40
2018-12-16T01:17:30.885Z,53.90
2018-12-16T01:18:30.867Z,55.50
2018-12-16T01:19:30.854Z,51.50
2018-12-16T01:20:31.721Z,53.40
2018-12-16T01:21:31.684Z,52.90
2018-12-16T01:22:30.861Z,52.50
2018-12-16T01:23:30.809Z,47.00
2018-12-16T01:24:31.679Z,50.70
2018-12-16T01:25:30.783Z,49.40
2018-12-16T01:26:30.773Z,48.90
2018-12-16T01:27:30.765Z,52.60
2018-12-16T01:28:30.753Z,48.60
2018-12-16T01:29:30.739Z,50.80
2018-12-16T01:30:30.737Z,52.80
2018-12-16T01:31:31.718Z,54.70
2018-12-16T01:32:30.711Z,49.80
2018-12-16T01:33:30.713Z,49.70
2018-12-16T01:34:30.691Z,45.90
2018-12-16T01:35:30.679Z,48.10
2018-12-16T01:36:30.672Z,48.20
2018-12-16T01:37:30.706Z,49.10
2018-12-16T01:38:30.655Z,49.20
2018-12-16T01:39:30.639Z,50.20
2018-12-16T01:40:31.186Z,48.90
2018-12-16T01:41:30.641Z,46.80
2018-12-16T01:42:30.618Z,47.70
2018-12-16T01:43:30.600Z,46.20
2018-12-16T01:44:30.609Z,45.10
2018-12-16T01:45:30.581Z,40.80
2018-12-16T01:46:30.576Z,46.00
2018-12-16T01:47:31.182Z,45.60
2018-12-16T01:48:30.601Z,46.60
2018-12-16T01:49:34.201Z,46.20
2018-12-16T01:50:33.225Z,47.50
2018-12-16T01:51:33.194Z,49.40
2018-12-16T01:52:31.205Z,47.80
2018-12-16T01:53:30.495Z,45.80
2018-12-16T01:54:30.476Z,45.90
2018-12-16T01:55:30.509Z,45.00
2018-12-16T01:56:31.166Z,41.20
2018-12-16T01:57:30.483Z,42.40
2018-12-16T01:58:30.444Z,45.40
2018-12-16T01:59:31.189Z,41.60
2018-12-16T02:00:30.442Z,43.20
2018-12-16T02:01:30.409Z,46.50
2018-12-16T02:02:30.401Z,43.90
2018-12-16T02:03:30.418Z,43.60
2018-12-16T02:04:30.421Z,45.80
2018-12-16T02:05:30.371Z,40.00
2018-12-16T02:06:30.359Z,43.00
2018-12-16T02:07:30.353Z,44.70
2018-12-16T02:08:30.349Z,42.00
2018-12-16T02:09:31.198Z,45.40
2018-12-16T02:10:30.351Z,42.60
2018-12-16T02:11:30.322Z,42.60
2018-12-16T02:12:30.309Z,42.00
2018-12-16T02:13:30.279Z,41.50
2018-12-16T02:14:32.216Z,40.90
2018-12-16T02:15:30.266Z,41.30
2018-12-16T02:16:30.266Z,39.90
2018-12-16T02:17:30.245Z,42.30
2018-12-16T02:18:30.251Z,38.40
2018-12-16T02:19:30.224Z,38.90
2018-12-16T02:20:30.217Z,37.10
2018-12-16T02:21:30.211Z,39.50
2018-12-16T02:22:30.192Z,41.40
2018-12-16T02:23:30.211Z,40.10
2018-12-16T02:24:30.697Z,39.10
2018-12-16T02:25:30.176Z,41.40
2018-12-16T02:26:30.152Z,42.30
2018-12-16T02:27:30.159Z,41.00
2018-12-16T02:28:31.126Z,36.50
2018-12-16T02:29:30.132Z,40.30
2018-12-16T02:30:30.110Z,28.80
2018-12-16T02:31:30.115Z,38.60
2018-12-16T02:32:30.087Z,38.80
2018-12-16T02:33:30.086Z,39.40
2018-12-16T02:34:30.723Z,36.60
2018-12-16T02:35:30.720Z,37.60
2018-12-16T02:36:30.690Z,40.10
2018-12-16T02:37:30.035Z,39.70
2018-12-16T02:38:30.058Z,40.50
2018-12-16T02:39:30.027Z,36.30
2018-12-16T02:40:30.691Z,35.60
2018-12-16T02:41:30.683Z,35.60
2018-12-16T02:42:29.998Z,34.40
2018-12-16T02:43:29.976Z,33.40
2018-12-16T02:44:31.689Z,29.50
2018-12-16T02:45:29.958Z,32.60
2018-12-16T02:46:30.679Z,33.70
2018-12-16T02:47:29.948Z,33.10
2018-12-16T02:48:29.926Z,37.50
2018-12-16T02:49:30.697Z,35.30
2018-12-16T02:50:29.901Z,34.10
2018-12-16T02:51:29.916Z,33.80
2018-12-16T02:52:29.908Z,33.10
2018-12-16T02:53:30.695Z,35.70
2018-12-16T02:54:29.870Z,23.90
2018-12-16T02:55:29.875Z,29.10
2018-12-16T02:56:29.855Z,31.30
2018-12-16T02:57:29.830Z,31.70
2018-12-16T02:58:29.837Z,32.10
2018-12-16T02:59:29.843Z,30.40
2018-12-16T03:00:29.801Z,28.10
2018-12-16T03:01:30.688Z,25.40
2018-12-16T03:02:31.721Z,24.10
2018-12-16T03:03:29.789Z,21.60
2018-12-16T03:04:29.764Z,25.50
2018-12-16T03:05:29.790Z,25.20
2018-12-16T03:06:29.741Z,26.10
2018-12-16T03:07:29.775Z,21.70
2018-12-16T03:08:29.733Z,16.60
2018-12-16T03:09:29.702Z,22.10
2018-12-16T03:10:29.700Z,21.50
2018-12-16T03:11:29.683Z,21.40
2018-12-16T03:12:29.675Z,20.80
2018-12-16T03:13:29.668Z,20.00
2018-12-16T03:14:29.660Z,20.30
2018-12-16T03:15:30.173Z,17.20
2018-12-16T03:16:29.673Z,19.10
2018-12-16T03:17:29.646Z,19.30
2018-12-16T03:18:30.198Z,14.10
2018-12-16T03:19:29.601Z,18.90
2018-12-16T03:20:29.587Z,19.10
2018-12-16T03:21:29.616Z,20.80
2018-12-16T03:22:30.243Z,20.50
2018-12-16T03:23:29.564Z,20.30
2018-12-16T03:24:29.554Z,19.50
2018-12-16T03:25:29.559Z,18.50
2018-12-16T03:26:35.813Z,19.00
2018-12-16T03:27:30.543Z,19.10
2018-12-16T03:28:29.522Z,19.10
2018-12-16T03:29:30.209Z,18.50
2018-12-16T03:30:29.527Z,20.20
2018-12-16T03:31:29.478Z,18.00
2018-12-16T03:32:29.487Z,18.10
2018-12-16T03:33:30.206Z,17.00
2018-12-16T03:34:30.186Z,17.40
2018-12-16T03:35:29.454Z,15.40
2018-12-16T03:36:29.433Z,18.80
2018-12-16T03:37:29.417Z,17.50
2018-12-16T03:38:29.422Z,18.90
2018-12-16T03:39:29.411Z,15.20
2018-12-16T03:40:30.189Z,19.10
2018-12-16T03:41:29.373Z,15.50
2018-12-16T03:42:29.388Z,16.40
2018-12-16T03:43:29.389Z,18.30
2018-12-16T03:44:29.347Z,19.50
2018-12-16T03:45:30.171Z,18.60
2018-12-16T03:46:29.316Z,18.90
2018-12-16T03:47:29.312Z,21.50
2018-12-16T03:48:30.195Z,20.00
2018-12-16T03:49:30.200Z,20.60
2018-12-16T03:50:29.287Z,21.00
2018-12-16T03:51:29.267Z,21.70
2018-12-16T03:52:30.184Z,23.10
2018-12-16T03:53:29.260Z,22.40
2018-12-16T03:54:29.259Z,23.60
2018-12-16T03:55:29.222Z,23.70
2018-12-16T03:56:29.212Z,24.80
2018-12-16T03:57:29.202Z,27.00
2018-12-16T03:58:29.180Z,25.80
2018-12-16T03:59:29.179Z,26.70
2018-12-16T04:01:22.785Z,30.70
2018-12-16T04:02:21.818Z,30.30
2018-12-16T04:03:21.796Z,29.70
2018-12-16T04:04:21.785Z,30.60
2018-12-16T04:05:21.780Z,32.30
2018-12-16T04:06:21.790Z,32.30
2018-12-16T04:07:21.761Z,31.50
2018-12-16T04:08:21.797Z,32.40
2018-12-16T04:09:21.733Z,32.90
2018-12-16T04:10:21.750Z,33.70
2018-12-16T04:11:21.722Z,31.60
2018-12-16T04:12:21.711Z,33.10
2018-12-16T04:13:22.255Z,42.60
2018-12-16T04:14:21.698Z,63.50
2018-12-16T04:15:21.672Z,35.10
2018-12-16T04:16:21.657Z,34.20
2018-12-16T04:17:21.670Z,37.40
2018-12-16T04:18:21.652Z,33.90
2018-12-16T04:19:21.672Z,33.30
2018-12-16T04:20:21.661Z,33.40
2018-12-16T04:21:21.612Z,33.60
2018-12-16T04:22:21.610Z,37.80
2018-12-16T04:23:27.440Z,33.60
2018-12-16T04:24:22.595Z,35.20
2018-12-16T04:25:22.260Z,33.90
2018-12-16T04:26:21.595Z,36.90
2018-12-16T04:27:21.550Z,34.60
2018-12-16T04:28:21.550Z,36.30
2018-12-16T04:29:21.582Z,36.00
2018-12-16T04:30:21.526Z,37.60
2018-12-16T04:31:21.518Z,37.80
2018-12-16T04:32:21.496Z,37.90
2018-12-16T04:33:21.488Z,38.30
2018-12-16T04:34:21.476Z,37.70
2018-12-16T04:35:21.474Z,38.60
2018-12-16T04:36:21.455Z,40.80
2018-12-16T04:37:21.436Z,39.70
2018-12-16T04:38:21.469Z,37.10
2018-12-16T04:39:21.437Z,40.30
2018-12-16T04:40:21.420Z,40.90
2018-12-16T04:41:21.409Z,40.30
2018-12-16T04:42:23.235Z,39.60
2018-12-16T04:43:22.240Z,40.10
2018-12-16T04:44:21.372Z,38.90
2018-12-16T04:45:21.363Z,41.80
2018-12-16T04:46:21.353Z,40.70
2018-12-16T04:47:21.332Z,40.10
2018-12-16T04:48:21.323Z,40.80
2018-12-16T04:49:21.335Z,40.80
2018-12-16T04:50:21.303Z,42.00
2018-12-16T04:51:21.296Z,39.70
2018-12-16T04:52:21.293Z,38.70
2018-12-16T04:53:21.282Z,42.00
2018-12-16T04:54:21.269Z,37.60
2018-12-16T04:55:21.256Z,41.70
2018-12-16T04:56:21.245Z,39.60
2018-12-16T04:57:22.234Z,37.20
2018-12-16T04:58:21.227Z,37.80
2018-12-16T04:59:22.215Z,37.20
2018-12-16T05:00:21.206Z,39.30
2018-12-16T05:01:21.190Z,37.70
2018-12-16T05:02:21.759Z,35.60
2018-12-16T05:03:22.796Z,38.60
2018-12-16T05:04:21.159Z,39.10
2018-12-16T05:05:21.148Z,38.90
2018-12-16T05:06:21.748Z,39.40
2018-12-16T05:07:21.123Z,42.20
2018-12-16T05:08:21.122Z,37.00
2018-12-16T05:09:22.756Z,40.00
2018-12-16T05:10:21.124Z,41.10
2018-12-16T05:11:21.098Z,40.40
2018-12-16T05:12:21.087Z,41.30
2018-12-16T05:13:21.058Z,38.30
2018-12-16T05:14:21.062Z,37.90
2018-12-16T05:15:21.070Z,38.20
2018-12-16T05:16:21.066Z,34.80
2018-12-16T05:17:21.734Z,39.20
2018-12-16T05:18:21.738Z,39.60
2018-12-16T05:19:21.029Z,41.00
2018-12-16T05:20:21.746Z,37.80
2018-12-16T05:21:21.747Z,37.70
2018-12-16T05:22:22.243Z,40.20
2018-12-16T05:23:20.960Z,39.80
2018-12-16T05:24:20.963Z,37.60
2018-12-16T05:25:20.939Z,38.40
2018-12-16T05:26:20.940Z,36.00
2018-12-16T05:27:21.743Z,37.00
2018-12-16T05:28:20.938Z,36.70
2018-12-16T05:29:21.747Z,37.50
2018-12-16T05:30:20.897Z,37.60
2018-12-16T05:31:21.741Z,38.90
2018-12-16T05:32:20.878Z,38.00
2018-12-16T05:33:22.789Z,39.70
2018-12-16T05:34:20.854Z,39.40
2018-12-16T05:35:20.832Z,40.20
2018-12-16T05:36:20.826Z,39.70
2018-12-16T05:37:21.798Z,36.80
2018-12-16T05:38:20.826Z,34.20
2018-12-16T05:39:20.797Z,37.70
2018-12-16T05:40:20.797Z,38.20
2018-12-16T05:41:20.774Z,37.00
2018-12-16T05:42:20.769Z,37.50
2018-12-16T05:43:20.763Z,38.30
2018-12-16T05:44:20.747Z,36.70
2018-12-16T05:45:20.728Z,36.70
2018-12-16T05:46:20.726Z,38.20
2018-12-16T05:47:21.711Z,38.50
2018-12-16T05:48:20.700Z,38.70
2018-12-16T05:49:20.685Z,39.30
2018-12-16T05:50:21.257Z,38.60
2018-12-16T05:51:20.661Z,40.20
2018-12-16T05:52:20.669Z,39.50
2018-12-16T05:53:20.655Z,39.70
2018-12-16T05:54:21.247Z,39.70
2018-12-16T05:55:21.250Z,41.10
2018-12-16T05:56:20.624Z,34.90
2018-12-16T05:57:20.604Z,37.10
2018-12-16T05:58:20.600Z,39.30
2018-12-16T05:59:20.602Z,39.30
2018-12-16T06:00:20.574Z,37.10
2018-12-16T06:01:20.567Z,37.70
2018-12-16T06:02:22.250Z,38.10
2018-12-16T06:03:20.549Z,38.70
2018-12-16T06:04:20.534Z,37.50
2018-12-16T06:05:20.524Z,39.80
2018-12-16T06:06:20.520Z,39.90
2018-12-16T06:07:20.495Z,39.90
2018-12-16T06:08:20.492Z,40.70
2018-12-16T06:09:20.487Z,38.80
2018-12-16T06:10:20.484Z,38.70
2018-12-16T06:11:21.225Z,38.00
2018-12-16T06:12:21.246Z,38.70
2018-12-16T06:13:20.479Z,33.40
2018-12-16T06:14:20.437Z,40.20
2018-12-16T06:15:20.431Z,39.30
2018-12-16T06:16:20.419Z,37.10
2018-12-16T06:17:20.408Z,40.30
2018-12-16T06:18:20.384Z,38.40
2018-12-16T06:19:21.240Z,39.80
2018-12-16T06:20:20.392Z,37.60
2018-12-16T06:21:20.348Z,38.50
2018-12-16T06:22:20.351Z,40.20
2018-12-16T06:23:20.331Z,40.70
2018-12-16T06:24:20.317Z,39.00
2018-12-16T06:25:20.322Z,39.90
2018-12-16T06:26:20.303Z,40.70
2018-12-16T06:27:20.286Z,38.70
2018-12-16T06:28:20.278Z,42.20
2018-12-16T06:29:20.276Z,41.00
2018-12-16T06:30:20.266Z,37.80
2018-12-16T06:31:21.248Z,42.10
2018-12-16T06:32:20.262Z,39.40
2018-12-16T06:33:20.230Z,37.80
2018-12-16T06:34:21.832Z,36.70
2018-12-16T06:35:20.206Z,37.60
2018-12-16T06:36:20.203Z,36.50
2018-12-16T06:37:20.194Z,35.30
2018-12-16T06:38:21.795Z,39.70
2018-12-16T06:39:20.744Z,40.50
2018-12-16T06:40:20.155Z,38.40
2018-12-16T06:41:20.142Z,39.30
2018-12-16T06:42:20.133Z,41.50
2018-12-16T06:43:20.131Z,37.00
2018-12-16T06:44:20.136Z,41.00
2018-12-16T06:45:20.099Z,41.10
2018-12-16T06:46:20.097Z,41.00
2018-12-16T06:47:20.080Z,40.50
2018-12-16T06:48:20.065Z,43.60
2018-12-16T06:49:20.056Z,42.20
2018-12-16T06:50:20.746Z,42.60
2018-12-16T06:51:20.047Z,41.50
2018-12-16T06:52:20.037Z,41.50
2018-12-16T06:53:20.035Z,41.30
2018-12-16T06:54:20.022Z,41.00
2018-12-16T06:55:19.998Z,42.10
2018-12-16T06:56:19.998Z,40.20
2018-12-16T06:57:28.328Z,41.00
2018-12-16T06:58:19.970Z,34.60
2018-12-16T06:59:19.976Z,40.60
2018-12-16T07:00:27.777Z,37.40
2018-12-16T07:01:28.253Z,36.50
2018-12-16T07:02:31.409Z,37.10
2018-12-16T07:03:27.228Z,38.00
2018-12-16T07:04:27.720Z,35.30
2018-12-16T07:05:27.197Z,31.30
2018-12-16T07:06:27.673Z,32.30
2018-12-16T07:07:28.123Z,35.30
2018-12-16T07:08:27.676Z,33.00
2018-12-16T07:09:28.130Z,33.70
2018-12-16T07:10:28.581Z,33.30
2018-12-16T07:11:28.245Z,34.80
2018-12-16T07:12:19.820Z,36.20
2018-12-16T07:13:27.003Z,36.20
2018-12-16T07:14:28.480Z,37.20
2018-12-16T07:15:27.938Z,36.20
2018-12-16T07:16:27.429Z,36.50
2018-12-16T07:17:26.925Z,35.60
2018-12-16T07:18:28.966Z,35.60
2018-12-16T07:19:27.216Z,35.00
2018-12-16T07:20:19.765Z,37.10
2018-12-16T07:21:19.779Z,36.10
2018-12-16T07:22:19.714Z,37.10
2018-12-16T07:23:19.729Z,36.70
2018-12-16T07:24:19.800Z,39.00
2018-12-16T07:25:19.684Z,37.90
2018-12-16T07:26:19.712Z,40.40
2018-12-16T07:27:19.739Z,35.50
2018-12-16T07:28:19.656Z,36.30
2018-12-16T07:29:19.646Z,34.40
2018-12-16T07:30:19.638Z,39.20
2018-12-16T07:31:19.626Z,38.70
2018-12-16T07:32:19.619Z,45.30
2018-12-16T07:33:19.612Z,39.40
2018-12-16T07:34:19.588Z,41.70
2018-12-16T07:35:19.585Z,36.60
2018-12-16T07:36:19.579Z,35.40
2018-12-16T07:37:19.606Z,39.80
2018-12-16T07:38:19.575Z,37.50
2018-12-16T07:39:19.550Z,33.60
2018-12-16T07:40:19.564Z,36.50
2018-12-16T07:41:19.525Z,35.70
2018-12-16T07:42:19.511Z,35.80
2018-12-16T07:43:19.544Z,28.50
2018-12-16T07:44:19.492Z,27.20
2018-12-16T07:45:21.050Z,24.10
2018-12-16T07:46:19.470Z,22.60
2018-12-16T07:47:19.510Z,19.20
2018-12-16T07:48:20.461Z,22.50
2018-12-16T07:49:19.450Z,17.30
2018-12-16T07:50:19.433Z,22.60
2018-12-16T07:51:19.415Z,24.10
2018-12-16T07:52:20.504Z,24.80
2018-12-16T07:54:16.063Z,28.50
2018-12-16T07:55:13.485Z,27.30
2018-12-16T07:56:12.498Z,31.90
2018-12-16T07:57:13.978Z,32.90
2018-12-16T07:58:11.381Z,28.70
2018-12-16T07:59:11.391Z,26.10
2018-12-16T08:00:13.982Z,29.30
2018-12-16T08:01:14.017Z,30.70
2018-12-16T08:02:11.358Z,36.60
2018-12-16T08:03:11.339Z,28.90
2018-12-16T08:04:11.362Z,24.30
2018-12-16T08:05:11.988Z,28.90
2018-12-16T08:06:11.351Z,29.70
2018-12-16T08:07:11.302Z,35.60
2018-12-16T08:08:11.281Z,40.70
2018-12-16T08:09:12.006Z,39.70
2018-12-16T08:10:11.990Z,32.40
2018-12-16T08:11:11.250Z,36.10
2018-12-16T08:12:11.972Z,29.60
2018-12-16T08:13:11.253Z,29.40
2018-12-16T08:14:11.228Z,30.10
2018-12-16T08:15:11.240Z,30.00
2018-12-16T08:16:11.202Z,28.30
2018-12-16T08:17:11.180Z,28.90
2018-12-16T08:18:11.170Z,30.10
2018-12-16T08:19:11.162Z,32.10
2018-12-16T08:20:11.174Z,28.40
2018-12-16T08:21:11.135Z,30.10
2018-12-16T08:22:11.157Z,30.00
2018-12-16T08:23:11.983Z,29.20
2018-12-16T08:24:11.113Z,26.70
2018-12-16T08:25:11.113Z,29.30
2018-12-16T08:26:11.092Z,24.70
2018-12-16T08:27:11.092Z,25.80
2018-12-16T08:28:11.089Z,25.00
2018-12-16T08:29:11.078Z,26.20
2018-12-16T08:30:11.971Z,27.50
2018-12-16T08:31:11.047Z,30.60
2018-12-16T08:32:11.027Z,30.40
2018-12-16T08:33:11.024Z,27.60
2018-12-16T08:34:11.035Z,27.60
2018-12-16T08:35:11.007Z,27.60
2018-12-16T08:36:10.991Z,28.80
2018-12-16T08:37:10.977Z,28.60
2018-12-16T08:38:10.977Z,28.90
2018-12-16T08:39:10.957Z,26.40
2018-12-16T08:40:11.488Z,26.50
2018-12-16T08:41:11.488Z,24.90
2018-12-16T08:42:10.923Z,26.30
2018-12-16T08:43:10.911Z,26.50
2018-12-16T08:44:10.925Z,26.60
2018-12-16T08:45:10.909Z,26.80
2018-12-16T08:46:11.497Z,27.50
2018-12-16T08:47:10.881Z,28.50
2018-12-16T08:48:11.490Z,28.70
2018-12-16T08:49:10.849Z,27.20
2018-12-16T08:50:10.842Z,27.50
2018-12-16T08:51:11.468Z,27.70
2018-12-16T08:52:10.821Z,28.00
2018-12-16T08:53:11.468Z,26.80
2018-12-16T08:54:10.805Z,58.40
2018-12-16T08:55:10.798Z,90.70
2018-12-16T08:56:10.781Z,56.30
2018-12-16T08:57:10.765Z,42.60
2018-12-16T08:58:10.757Z,33.90
2018-12-16T08:59:10.745Z,30.70
2018-12-16T09:00:10.745Z,30.50
2018-12-16T09:01:13.467Z,40.30
2018-12-16T09:02:11.966Z,32.90
2018-12-16T09:03:11.474Z,41.70
2018-12-16T09:04:10.697Z,35.30
2018-12-16T09:05:11.483Z,32.60
2018-12-16T09:06:10.673Z,33.40
2018-12-16T09:07:11.474Z,28.60
2018-12-16T09:08:10.662Z,26.00
2018-12-16T09:09:11.516Z,22.70
2018-12-16T09:10:10.635Z,18.30
2018-12-16T09:11:10.620Z,33.70
2018-12-16T09:12:10.607Z,34.10
2018-12-16T09:13:10.593Z,28.50
2018-12-16T09:14:12.492Z,25.60
2018-12-16T09:15:10.579Z,28.10
2018-12-16T09:16:11.460Z,22.20
2018-12-16T09:17:11.477Z,28.60
2018-12-16T09:18:10.570Z,29.40
2018-12-16T09:19:10.534Z,24.60
2018-12-16T09:20:10.523Z,29.30
2018-12-16T09:21:10.512Z,27.10
2018-12-16T09:22:11.468Z,30.80
2018-12-16T09:23:10.499Z,26.50
2018-12-16T09:24:10.481Z,29.70
2018-12-16T09:25:10.512Z,29.10
2018-12-16T09:26:10.480Z,26.50
2018-12-16T09:27:10.453Z,27.80
2018-12-16T09:28:10.450Z,27.20
2018-12-16T09:29:10.431Z,25.10
2018-12-16T09:30:10.413Z,23.70
2018-12-16T09:31:10.468Z,19.40
2018-12-16T09:32:10.399Z,18.20
2018-12-16T09:33:10.391Z,21.90
2018-12-16T09:34:11.005Z,21.50
2018-12-16T09:35:10.358Z,22.20
2018-12-16T09:36:10.354Z,20.60
2018-12-16T09:37:11.971Z,19.50
2018-12-16T09:38:11.969Z,22.50
2018-12-16T09:39:10.316Z,23.30
2018-12-16T09:40:10.973Z,20.50
2018-12-16T09:41:11.376Z,20.50
2018-12-16T09:42:11.009Z,23.60
2018-12-16T09:43:11.486Z,22.70
2018-12-16T09:44:13.981Z,19.40
2018-12-16T09:45:12.953Z,23.60
2018-12-16T09:46:10.972Z,24.40
2018-12-16T09:47:11.963Z,21.10
2018-12-16T09:48:12.006Z,21.40
2018-12-16T09:49:12.014Z,23.10
2018-12-16T09:50:10.978Z,22.20
2018-12-16T09:51:10.190Z,24.40
2018-12-16T09:52:12.005Z,23.10
2018-12-16T09:53:10.969Z,27.70
2018-12-16T09:54:13.971Z,28.00
2018-12-16T09:55:12.982Z,25.90
2018-12-16T09:56:13.002Z,41.50
2018-12-16T09:57:13.001Z,31.30
2018-12-16T09:58:10.128Z,32.00
2018-12-16T09:59:12.988Z,50.70
2018-12-16T10:00:11.986Z,34.20
2018-12-16T10:01:11.000Z,37.70
2018-12-16T10:02:10.114Z,33.00
2018-12-16T10:03:11.962Z,31.50
2018-12-16T10:04:10.069Z,36.60
2018-12-16T10:05:10.974Z,44.40
2018-12-16T10:06:11.973Z,40.00
2018-12-16T10:07:10.972Z,34.20
2018-12-16T10:08:12.979Z,26.30
2018-12-16T10:09:10.004Z,42.50
2018-12-16T10:10:10.995Z,33.00
2018-12-16T10:11:11.509Z,44.60
2018-12-16T10:12:14.510Z,43.50
2018-12-16T10:13:10.476Z,43.30
2018-12-16T10:14:09.968Z,43.40
2018-12-16T10:15:10.505Z,26.70
2018-12-16T10:16:10.476Z,37.30
2018-12-16T10:17:13.980Z,27.50
2018-12-16T10:18:11.501Z,32.80
2018-12-16T10:19:10.976Z,27.30
2018-12-16T10:20:12.506Z,42.20
2018-12-16T10:21:12.509Z,53.60
2018-12-16T10:22:10.992Z,41.50
2018-12-16T10:23:11.512Z,58.50
2018-12-16T10:24:09.840Z,78.60
2018-12-16T10:25:10.969Z,69.30
2018-12-16T10:26:09.833Z,38.40
2018-12-16T10:27:12.992Z,42.30
2018-12-16T10:28:10.471Z,53.20
2018-12-16T10:29:10.517Z,44.30
2018-12-16T10:30:11.478Z,58.60
2018-12-16T10:31:10.481Z,60.80
2018-12-16T10:32:13.962Z,76.80
2018-12-16T10:33:11.978Z,60.80
2018-12-16T10:34:14.486Z,57.70
2018-12-16T10:35:12.887Z,50.70
2018-12-16T10:36:09.723Z,63.40
2018-12-16T10:37:12.517Z,46.00
2018-12-16T10:38:09.711Z,58.50
2018-12-16T10:39:09.712Z,65.20
2018-12-16T10:40:12.513Z,43.20
2018-12-16T10:41:10.676Z,51.70
2018-12-16T10:42:11.467Z,57.50
2018-12-16T10:43:10.487Z,74.70
2018-12-16T10:44:15.487Z,75.70
2018-12-16T10:45:12.506Z,66.50
2018-12-16T10:46:09.624Z,49.20
2018-12-16T10:47:09.609Z,58.30
2018-12-16T10:48:13.186Z,44.90
2018-12-16T10:49:14.478Z,60.80
2018-12-16T10:50:11.506Z,72.90
2018-12-16T10:51:10.573Z,65.90
2018-12-16T10:52:10.591Z,43.80
2018-12-16T10:53:10.475Z,47.30
2018-12-16T10:54:12.498Z,44.40
2018-12-16T10:55:10.529Z,44.40
2018-12-16T10:56:10.526Z,57.50
2018-12-16T10:57:09.530Z,49.30
2018-12-16T10:58:10.009Z,44.90
2018-12-16T10:59:09.500Z,59.20
2018-12-16T11:00:10.529Z,65.10
2018-12-16T11:01:09.466Z,38.10
2018-12-16T11:02:12.495Z,46.60
2018-12-16T11:03:09.970Z,43.70
2018-12-16T11:04:09.451Z,37.40
2018-12-16T11:05:09.978Z,43.10
2018-12-16T11:06:10.695Z,55.40
2018-12-16T11:07:09.414Z,72.20
2018-12-16T11:08:11.006Z,77.90
2018-12-16T11:09:16.996Z,56.20
2018-12-16T11:10:09.371Z,38.20
2018-12-16T11:11:09.955Z,45.60
2018-12-16T11:12:11.039Z,55.30
2018-12-16T11:13:10.502Z,51.70
2018-12-16T11:14:15.534Z,93.80
2018-12-16T11:15:09.335Z,94.60
2018-12-16T11:16:09.327Z,38.20
2018-12-16T11:17:09.308Z,81.00
2018-12-16T11:18:09.988Z,69.20
2018-12-16T11:19:12.481Z,105.60
2018-12-16T11:20:09.276Z,72.30
2018-12-16T11:21:09.982Z,73.30
2018-12-16T11:22:11.483Z,57.60
2018-12-16T11:23:11.994Z,58.50
2018-12-16T11:24:12.496Z,99.20
2018-12-16T11:25:26.020Z,92.40
2018-12-16T11:27:06.290Z,65.10
2018-12-16T11:28:02.781Z,68.50
2018-12-16T11:30:12.388Z,85.30
2018-12-16T11:30:57.367Z,79.90
2018-12-16T11:31:55.956Z,36.20
2018-12-16T11:32:58.375Z,42.90
2018-12-16T11:33:58.850Z,80.80
2018-12-16T11:35:02.881Z,52.50
2018-12-16T11:35:56.876Z,53.40
2018-12-16T11:36:58.855Z,56.50
2018-12-16T11:38:01.854Z,71.50
2018-12-16T11:38:58.856Z,80.50
2018-12-16T11:39:58.862Z,54.00
2018-12-16T11:40:58.353Z,53.70
2018-12-16T11:41:56.859Z,61.40
2018-12-16T11:42:57.363Z,52.50
2018-12-16T11:43:58.368Z,47.80
2018-12-16T11:45:24.362Z,56.90
2018-12-16T11:45:57.854Z,35.10
2018-12-16T11:46:56.344Z,55.50
2018-12-16T11:47:56.844Z,66.10
2018-12-16T11:48:57.850Z,60.80
2018-12-16T11:49:57.365Z,93.10
2018-12-16T11:50:56.881Z,55.50
2018-12-16T11:51:55.757Z,28.00
2018-12-16T11:53:00.404Z,40.90
2018-12-16T11:53:56.356Z,65.00
2018-12-16T11:54:57.429Z,54.70
2018-12-16T11:55:57.386Z,40.70
2018-12-16T11:57:00.570Z,35.60
2018-12-16T11:57:56.907Z,29.80
2018-12-16T11:58:56.363Z,29.80
2018-12-16T11:59:56.421Z,36.40
2018-12-16T12:00:58.390Z,30.70
2018-12-16T12:01:58.387Z,47.90
2018-12-16T12:02:58.380Z,62.80
2018-12-16T12:03:55.627Z,44.60
2018-12-16T12:04:55.854Z,30.70
2018-12-16T12:05:56.373Z,37.40
2018-12-16T12:06:56.359Z,54.40
2018-12-16T12:07:55.600Z,33.10
2018-12-16T12:08:55.580Z,34.40
2018-12-16T12:10:04.900Z,42.70
2018-12-16T12:10:57.389Z,71.30
2018-12-16T12:11:56.401Z,42.80
2018-12-16T12:12:56.341Z,50.40
2018-12-16T12:13:58.385Z,44.60
2018-12-16T12:14:55.535Z,42.80
2018-12-16T12:16:00.473Z,41.30
2018-12-16T12:16:55.527Z,37.50
2018-12-16T12:17:58.519Z,40.10
2018-12-16T12:18:55.473Z,46.30
2018-12-16T12:19:56.339Z,54.20
2018-12-16T12:20:58.520Z,51.90
2018-12-16T12:21:56.388Z,34.60
2018-12-16T12:22:58.368Z,35.70
2018-12-16T12:23:55.434Z,54.50
2018-12-16T12:24:56.340Z,50.10
2018-12-16T12:25:55.854Z,51.60
2018-12-16T12:26:55.466Z,43.60
2018-12-16T12:27:56.378Z,42.60
2018-12-16T12:28:56.926Z,26.40
2018-12-16T12:29:55.351Z,29.10
2018-12-16T12:30:56.347Z,26.70
2018-12-16T12:31:55.907Z,36.40
2018-12-16T12:32:55.959Z,53.60
2018-12-16T12:33:55.854Z,33.10
2018-12-16T12:34:55.940Z,38.90
2018-12-16T12:35:56.951Z,29.80
2018-12-16T12:36:56.891Z,31.10
2018-12-16T12:37:55.295Z,29.60
2018-12-16T12:38:55.266Z,33.90
2018-12-16T12:39:55.378Z,34.10
2018-12-16T12:40:55.247Z,31.00
2018-12-16T12:41:57.046Z,35.00
2018-12-16T12:42:56.311Z,27.50
2018-12-16T12:44:01.370Z,25.40
2018-12-16T12:44:56.886Z,33.80
2018-12-16T12:45:55.188Z,47.80
2018-12-16T12:46:55.177Z,39.10
2018-12-16T12:47:55.878Z,36.50
2018-12-16T12:48:56.843Z,37.10
2018-12-16T12:49:58.846Z,37.10
2018-12-16T12:50:55.131Z,28.30
2018-12-16T12:51:55.114Z,43.60
2018-12-16T12:52:55.099Z,36.00
2018-12-16T12:53:55.094Z,25.50
2018-12-16T12:54:55.847Z,38.00
2018-12-16T12:55:55.080Z,31.60